Terminal Aerodrome Forecast
Issued by NWS

Home | Current Version | Previous Version | Text Only | Print | Product List | Glossary On
Versions: 1 2 3 4 5 6 7 8 9 10 11 12 13 14 15 16
553
FTUS43 KGRR 071740
TAFMKG
TAF
KMKG 071740Z 0718/0818 26017G25KT P6SM BKN020
     FM080000 26017G28KT P6SM VCSH OVC025
     FM080800 28018G28KT 4SM -SHSN BLSN OVC015
     FM081300 28018G27KT 2SM -SHSN BLSN OVC010
     FM081500 28018KT 1/4SM +SHSN BLSN OVC008=

USA.gov is the U.S. government's official web portal to all federal, state and local government web resources and services.